createdAt,value
2017-12-16T00:00:34.109Z,11.53
2017-12-16T00:03:02.937Z,11.10
2017-12-16T00:05:31.785Z,11.77
2017-12-16T00:08:00.614Z,11.80
2017-12-16T00:10:29.450Z,12.00
2017-12-16T00:12:58.319Z,12.10
2017-12-16T00:15:27.191Z,10.20
2017-12-16T00:17:56.012Z,11.43
2017-12-16T00:20:24.869Z,11.47
2017-12-16T00:22:53.766Z,10.20
2017-12-16T00:25:22.658Z,11.23
2017-12-16T00:27:51.500Z,9.70
2017-12-16T00:30:20.337Z,11.30
2017-12-16T00:32:49.156Z,9.87
2017-12-16T00:35:17.997Z,10.03
2017-12-16T00:37:46.846Z,11.63
2017-12-16T00:40:15.690Z,8.20
2017-12-16T00:42:44.533Z,9.00
2017-12-16T00:45:13.381Z,9.40
2017-12-16T00:47:42.671Z,8.50
2017-12-16T00:50:11.506Z,8.20
2017-12-16T00:52:40.333Z,7.30
2017-12-16T00:55:09.157Z,6.80
2017-12-16T00:57:38.013Z,7.47
2017-12-16T01:00:06.947Z,7.17
2017-12-16T01:02:35.769Z,7.13
2017-12-16T01:05:04.607Z,6.00
2017-12-16T01:07:33.598Z,6.70
2017-12-16T01:10:02.471Z,7.00
2017-12-16T01:12:31.304Z,7.37
2017-12-16T01:15:00.167Z,7.70
2017-12-16T01:17:28.991Z,11.20
2017-12-16T01:19:57.832Z,10.17
2017-12-16T01:22:26.663Z,9.70
2017-12-16T01:24:55.537Z,9.07
2017-12-16T01:27:24.366Z,8.33
2017-12-16T01:29:53.198Z,7.00
2017-12-16T01:32:22.103Z,8.03
2017-12-16T01:34:56.800Z,9.00
2017-12-16T01:37:31.624Z,7.90
2017-12-16T01:40:00.546Z,8.50
2017-12-16T01:42:29.378Z,8.43
2017-12-16T01:44:58.198Z,8.97
2017-12-16T01:47:27.037Z,8.70
2017-12-16T01:49:55.898Z,8.90
2017-12-16T01:52:24.732Z,8.70
2017-12-16T01:54:53.565Z,9.63
2017-12-16T01:57:22.477Z,9.30
2017-12-16T01:59:51.293Z,8.43
2017-12-16T02:02:20.157Z,8.00
2017-12-16T02:04:48.983Z,8.20
2017-12-16T02:07:17.819Z,8.53
2017-12-16T02:09:46.659Z,7.83
2017-12-16T02:12:15.849Z,8.20
2017-12-16T02:14:44.677Z,9.23
2017-12-16T02:17:13.509Z,8.63
2017-12-16T02:19:42.458Z,8.83
2017-12-16T02:22:11.289Z,8.30
2017-12-16T02:24:40.174Z,8.20
2017-12-16T02:27:09.000Z,8.40
2017-12-16T02:29:37.830Z,7.80
2017-12-16T02:32:06.994Z,8.77
2017-12-16T02:34:35.832Z,10.17
2017-12-16T02:37:04.656Z,8.60
2017-12-16T02:39:33.498Z,9.53
2017-12-16T02:42:02.332Z,8.10
2017-12-16T02:44:31.158Z,7.50
2017-12-16T02:46:59.994Z,7.37
2017-12-16T02:49:28.815Z,7.77
2017-12-16T02:51:57.642Z,7.10
2017-12-16T02:54:26.503Z,8.30
2017-12-16T02:56:55.358Z,7.13
2017-12-16T02:59:24.174Z,7.50
2017-12-16T03:01:53.034Z,8.47
2017-12-16T03:04:21.879Z,7.53
2017-12-16T03:06:50.705Z,7.37
2017-12-16T03:09:19.605Z,7.50
2017-12-16T03:11:48.439Z,8.10
2017-12-16T03:14:17.493Z,7.67
2017-12-16T03:16:46.329Z,8.30
2017-12-16T03:19:15.151Z,7.40
2017-12-16T03:21:43.970Z,8.60
2017-12-16T03:24:12.858Z,7.80
2017-12-16T03:26:41.739Z,8.20
2017-12-16T03:29:10.559Z,8.10
2017-12-16T03:31:39.394Z,9.30
2017-12-16T03:34:08.276Z,8.70
2017-12-16T03:36:37.538Z,9.23
2017-12-16T03:39:06.406Z,8.60
2017-12-16T03:41:35.298Z,9.67
2017-12-16T03:44:04.136Z,9.73
2017-12-16T03:46:33.031Z,9.83
2017-12-16T03:49:01.849Z,9.77
2017-12-16T03:51:30.758Z,9.43
2017-12-16T03:53:59.642Z,8.00
2017-12-16T03:56:28.468Z,9.57
2017-12-16T03:58:57.329Z,11.30
2017-12-16T04:01:26.173Z,13.50
2017-12-16T04:03:55.023Z,10.47
2017-12-16T04:06:23.893Z,10.30
2017-12-16T04:08:52.741Z,10.10
2017-12-16T04:11:21.569Z,10.60
2017-12-16T04:13:50.403Z,11.03
2017-12-16T04:16:19.259Z,9.47
2017-12-16T04:18:48.147Z,10.00
2017-12-16T04:21:16.971Z,8.30
2017-12-16T04:23:45.805Z,9.57
2017-12-16T04:26:14.725Z,10.10
2017-12-16T04:28:43.547Z,9.50
2017-12-16T04:31:12.386Z,10.03
2017-12-16T04:33:41.216Z,11.03
2017-12-16T04:36:10.078Z,9.17
2017-12-16T04:38:38.912Z,8.57
2017-12-16T04:41:07.738Z,8.57
2017-12-16T04:43:36.568Z,7.77
2017-12-16T04:46:05.402Z,8.73
2017-12-16T04:48:34.221Z,7.80
2017-12-16T04:51:03.081Z,7.23
2017-12-16T04:53:31.915Z,7.83
2017-12-16T04:56:00.733Z,6.93
2017-12-16T04:58:29.567Z,10.40
2017-12-16T05:00:58.412Z,17.07
2017-12-16T05:03:27.261Z,9.13
2017-12-16T05:05:56.083Z,9.80
2017-12-16T05:08:24.943Z,9.03
2017-12-16T05:10:53.768Z,10.10
2017-12-16T05:13:22.627Z,9.43
2017-12-16T05:15:51.465Z,10.03
2017-12-16T05:18:20.301Z,21.10
2017-12-16T05:20:49.131Z,10.67
2017-12-16T05:23:18.015Z,10.10
2017-12-16T05:25:46.907Z,9.80
2017-12-16T05:28:15.723Z,9.83
2017-12-16T05:30:44.618Z,9.90
2017-12-16T05:33:13.450Z,9.87
2017-12-16T05:35:42.276Z,10.47
2017-12-16T05:38:11.226Z,10.73
2017-12-16T05:40:40.130Z,26.07
2017-12-16T05:43:08.952Z,12.07
2017-12-16T05:45:37.792Z,11.00
2017-12-16T05:48:06.626Z,11.03
2017-12-16T05:50:35.462Z,11.27
2017-12-16T05:53:04.310Z,11.30
2017-12-16T05:55:33.134Z,10.23
2017-12-16T05:58:01.974Z,10.73
2017-12-16T06:00:30.838Z,11.00
2017-12-16T06:02:59.663Z,10.40
2017-12-16T06:05:28.539Z,9.77
2017-12-16T06:07:57.392Z,10.53
2017-12-16T06:10:26.213Z,10.40
2017-12-16T06:12:55.055Z,10.20
2017-12-16T06:15:23.981Z,10.03
2017-12-16T06:17:52.935Z,11.30
2017-12-16T06:20:21.757Z,11.20
2017-12-16T06:22:50.660Z,10.43
2017-12-16T06:25:19.536Z,10.73
2017-12-16T06:27:48.436Z,10.83
2017-12-16T06:30:17.331Z,33.43
2017-12-16T06:32:46.154Z,13.40
2017-12-16T06:35:14.990Z,10.23
2017-12-16T06:37:43.834Z,9.93
2017-12-16T06:40:12.672Z,9.97
2017-12-16T06:42:41.506Z,10.40
2017-12-16T06:45:10.338Z,10.77
2017-12-16T06:47:39.241Z,10.47
2017-12-16T06:50:08.076Z,10.47
2017-12-16T06:52:36.918Z,10.77
2017-12-16T06:55:05.834Z,10.90
2017-12-16T06:57:34.682Z,11.60
2017-12-16T07:00:03.562Z,10.07
2017-12-16T07:02:32.494Z,10.80
2017-12-16T07:05:01.323Z,10.10
2017-12-16T07:07:30.164Z,10.60
2017-12-16T07:09:59.078Z,10.13
2017-12-16T07:12:27.910Z,9.80
2017-12-16T07:14:56.858Z,10.20
2017-12-16T07:17:25.685Z,10.30
2017-12-16T07:19:54.517Z,11.40
2017-12-16T07:22:23.361Z,10.60
2017-12-16T07:24:52.199Z,9.80
2017-12-16T07:27:21.027Z,11.10
2017-12-16T07:29:50.514Z,11.03
2017-12-16T07:32:19.371Z,10.90
2017-12-16T07:34:48.202Z,10.83
2017-12-16T07:37:17.089Z,9.90
2017-12-16T07:39:45.910Z,10.40
2017-12-16T07:42:14.762Z,10.70
2017-12-16T07:44:43.628Z,10.60
2017-12-16T07:47:12.452Z,9.93
2017-12-16T07:49:41.324Z,10.17
2017-12-16T07:52:10.230Z,9.87
2017-12-16T07:54:39.064Z,10.70
2017-12-16T07:57:07.881Z,10.67
2017-12-16T07:59:36.734Z,14.67
2017-12-16T08:02:05.570Z,11.70
2017-12-16T08:04:34.413Z,10.10
2017-12-16T08:07:04.159Z,10.50
2017-12-16T08:09:33.086Z,16.07
2017-12-16T08:12:02.759Z,16.77
2017-12-16T08:14:31.619Z,16.60
2017-12-16T08:17:00.461Z,15.50
2017-12-16T08:19:29.299Z,14.07
2017-12-16T08:21:58.205Z,14.87
2017-12-16T08:24:27.035Z,14.20
2017-12-16T08:26:55.863Z,16.00
2017-12-16T08:29:24.705Z,14.83
2017-12-16T08:31:53.538Z,13.67
2017-12-16T08:34:22.367Z,11.00
2017-12-16T08:36:51.529Z,10.90
2017-12-16T08:39:20.354Z,11.07
2017-12-16T08:41:49.240Z,11.10
2017-12-16T08:44:18.074Z,11.63
2017-12-16T08:46:46.906Z,11.03
2017-12-16T08:49:15.726Z,11.00
2017-12-16T08:51:44.574Z,10.30
2017-12-16T08:54:13.444Z,27.60
2017-12-16T08:56:42.265Z,14.47
2017-12-16T08:59:11.113Z,12.00
2017-12-16T09:01:40.495Z,12.40
2017-12-16T09:04:09.323Z,11.80
2017-12-16T09:06:38.162Z,9.70
2017-12-16T09:09:07.022Z,8.07
2017-12-16T09:11:35.861Z,9.20
2017-12-16T09:14:04.693Z,8.73
2017-12-16T09:16:33.519Z,9.07
2017-12-16T09:19:02.337Z,9.63
2017-12-16T09:21:31.213Z,7.00
2017-12-16T09:24:00.043Z,8.13
2017-12-16T09:26:28.919Z,8.10
2017-12-16T09:28:57.805Z,7.57
2017-12-16T09:31:26.623Z,7.37
2017-12-16T09:33:55.437Z,8.27
2017-12-16T09:36:24.358Z,7.40
2017-12-16T09:38:53.706Z,8.07
2017-12-16T09:41:22.563Z,7.27
2017-12-16T09:43:51.392Z,9.00
2017-12-16T09:46:20.234Z,9.10
2017-12-16T09:48:49.065Z,11.87
2017-12-16T09:51:17.901Z,9.17
2017-12-16T09:53:46.718Z,10.03
2017-12-16T09:56:15.618Z,9.90
2017-12-16T09:58:44.477Z,10.97
2017-12-16T10:01:13.307Z,12.20
2017-12-16T10:03:42.190Z,11.73
2017-12-16T10:06:11.054Z,12.10
2017-12-16T10:08:39.882Z,11.67
2017-12-16T10:11:08.709Z,12.80
2017-12-16T10:13:37.639Z,13.40
2017-12-16T10:16:06.477Z,14.67
2017-12-16T10:18:35.304Z,13.50
2017-12-16T10:21:04.203Z,13.93
2017-12-16T10:23:33.088Z,13.73
2017-12-16T10:26:02.008Z,14.23
2017-12-16T10:28:30.871Z,14.70
2017-12-16T10:30:59.769Z,13.30
2017-12-16T10:33:28.597Z,12.80
2017-12-16T10:35:57.438Z,14.70
2017-12-16T10:38:26.331Z,12.80
2017-12-16T10:40:55.158Z,12.70
2017-12-16T10:43:23.994Z,14.97
2017-12-16T10:45:52.834Z,16.07
2017-12-16T10:48:21.704Z,13.93
2017-12-16T10:50:50.526Z,14.77
2017-12-16T10:53:19.377Z,15.30
2017-12-16T10:55:48.236Z,14.90
2017-12-16T10:58:17.163Z,15.77
2017-12-16T11:00:51.750Z,15.53
2017-12-16T11:03:20.598Z,14.97
2017-12-16T11:05:49.434Z,15.00
2017-12-16T11:08:18.316Z,14.63
2017-12-16T11:10:47.173Z,17.70
2017-12-16T11:13:16.020Z,15.17
2017-12-16T11:15:44.928Z,19.63
2017-12-16T11:18:13.773Z,23.73
2017-12-16T11:20:42.601Z,15.83
2017-12-16T11:23:11.825Z,27.80
2017-12-16T11:25:40.665Z,15.40
2017-12-16T11:28:09.586Z,14.00
2017-12-16T11:30:38.423Z,16.63
2017-12-16T11:33:07.275Z,13.80
2017-12-16T11:35:36.107Z,12.90
2017-12-16T11:38:05.654Z,13.30
2017-12-16T11:40:34.498Z,14.60
2017-12-16T11:43:03.392Z,14.20
2017-12-16T11:45:32.187Z,17.10
2017-12-16T11:48:01.131Z,15.13
2017-12-16T11:50:30.036Z,13.70
2017-12-16T11:52:58.966Z,15.00
2017-12-16T11:55:28.043Z,14.67
2017-12-16T11:57:56.870Z,14.60
2017-12-16T12:00:25.807Z,14.03
2017-12-16T12:02:54.649Z,14.17
2017-12-16T12:05:23.570Z,14.50
2017-12-16T12:07:52.402Z,14.53
2017-12-16T12:10:21.334Z,14.47
2017-12-16T12:12:50.165Z,14.47
2017-12-16T12:15:19.016Z,16.20
2017-12-16T12:17:47.850Z,17.23
2017-12-16T12:20:16.712Z,15.70
2017-12-16T12:22:45.546Z,16.73
2017-12-16T12:25:14.493Z,15.97
2017-12-16T12:27:43.717Z,16.07
2017-12-16T12:30:12.542Z,17.07
2017-12-16T12:32:41.821Z,18.90
2017-12-16T12:35:10.665Z,18.00
2017-12-16T12:37:39.563Z,17.40
2017-12-16T12:40:08.481Z,19.87
2017-12-16T12:42:37.322Z,20.03
2017-12-16T12:45:06.141Z,19.33
2017-12-16T12:47:35.027Z,18.63
2017-12-16T12:50:03.916Z,17.77
2017-12-16T12:52:32.804Z,17.93
2017-12-16T12:55:01.645Z,18.53
2017-12-16T12:57:30.506Z,19.90
2017-12-16T12:59:59.330Z,19.07
2017-12-16T13:02:28.494Z,20.07
2017-12-16T13:04:57.309Z,20.03
2017-12-16T13:07:26.144Z,20.90
2017-12-16T13:09:54.980Z,20.30
2017-12-16T13:12:23.834Z,22.17
2017-12-16T13:14:52.719Z,19.73
2017-12-16T13:17:21.558Z,19.50
2017-12-16T13:19:50.398Z,22.57
2017-12-16T13:22:19.221Z,22.10
2017-12-16T13:24:48.063Z,20.90
2017-12-16T13:27:16.977Z,19.33
2017-12-16T13:29:45.957Z,19.80
2017-12-16T13:32:14.864Z,20.40
2017-12-16T13:34:43.751Z,19.23
2017-12-16T13:37:12.637Z,20.70
2017-12-16T13:39:41.495Z,20.23
2017-12-16T13:42:10.417Z,18.00
2017-12-16T13:44:39.246Z,18.50
2017-12-16T13:47:08.087Z,18.30
2017-12-16T13:49:36.998Z,19.63
2017-12-16T13:52:05.834Z,20.93
2017-12-16T13:54:34.674Z,22.27
2017-12-16T13:57:03.528Z,20.80
2017-12-16T13:59:32.354Z,21.47
2017-12-16T14:02:01.190Z,20.97
2017-12-16T14:04:30.148Z,20.70
2017-12-16T14:06:58.986Z,21.13
2017-12-16T14:09:28.146Z,21.83
2017-12-16T14:11:57.010Z,21.27
2017-12-16T14:14:26.568Z,20.87
2017-12-16T14:16:55.410Z,21.07
2017-12-16T14:19:24.233Z,21.77
2017-12-16T14:21:53.091Z,27.43
2017-12-16T14:24:21.925Z,22.57
2017-12-16T14:26:50.769Z,17.50
2017-12-16T14:29:19.659Z,18.20
2017-12-16T14:31:48.497Z,17.10
2017-12-16T14:34:17.328Z,17.57
2017-12-16T14:36:46.167Z,16.90
2017-12-16T14:39:15.015Z,16.63
2017-12-16T14:41:43.851Z,17.60
2017-12-16T14:44:13.165Z,16.60
2017-12-16T14:46:41.999Z,18.30
2017-12-16T14:49:10.886Z,18.37
2017-12-16T14:51:39.806Z,16.30
2017-12-16T14:54:08.673Z,16.43
2017-12-16T14:56:37.565Z,19.67
2017-12-16T14:59:06.396Z,18.77
2017-12-16T15:01:35.244Z,19.27
2017-12-16T15:04:04.061Z,19.40
2017-12-16T15:06:32.898Z,17.97
2017-12-16T15:09:01.822Z,17.23
2017-12-16T15:11:30.710Z,18.93
2017-12-16T15:13:59.574Z,18.37
2017-12-16T15:16:28.437Z,18.80
2017-12-16T15:18:57.274Z,19.00
2017-12-16T15:21:26.175Z,18.67
2017-12-16T15:23:55.022Z,19.83
2017-12-16T15:26:23.867Z,20.00
2017-12-16T15:28:52.775Z,18.73
2017-12-16T15:31:21.627Z,22.10
2017-12-16T15:33:50.449Z,21.97
2017-12-16T15:36:19.313Z,22.90
2017-12-16T15:38:48.152Z,21.83
2017-12-16T15:41:16.991Z,24.30
2017-12-16T15:43:45.820Z,23.80
2017-12-16T15:46:14.653Z,22.50
2017-12-16T15:48:43.545Z,22.60
2017-12-16T15:51:12.370Z,21.70
2017-12-16T15:53:41.232Z,19.90
2017-12-16T15:56:10.066Z,19.70
2017-12-16T15:58:38.898Z,19.70
2017-12-16T16:01:07.741Z,17.43
2017-12-16T16:03:36.580Z,17.57
2017-12-16T16:06:05.414Z,18.10
2017-12-16T16:08:34.262Z,16.30
2017-12-16T16:11:03.102Z,17.13
2017-12-16T16:13:31.932Z,17.30
2017-12-16T16:16:00.772Z,18.07
2017-12-16T16:18:29.599Z,15.80
2017-12-16T16:20:58.436Z,15.90
2017-12-16T16:23:27.269Z,16.57
2017-12-16T16:25:56.094Z,15.57
2017-12-16T16:28:25.045Z,17.40
2017-12-16T16:30:53.891Z,18.57
2017-12-16T16:33:22.741Z,17.40
2017-12-16T16:35:51.565Z,17.40
2017-12-16T16:38:20.407Z,18.67
2017-12-16T16:40:49.361Z,17.50
2017-12-16T16:43:18.222Z,17.63
2017-12-16T16:45:47.070Z,18.63
2017-12-16T16:48:15.973Z,18.30
2017-12-16T16:50:44.814Z,16.83
2017-12-16T16:53:13.689Z,16.43
2017-12-16T16:55:42.530Z,19.57
2017-12-16T16:58:11.361Z,18.67
2017-12-16T17:00:40.210Z,19.23
2017-12-16T17:03:09.041Z,18.10
2017-12-16T17:05:37.874Z,18.40
2017-12-16T17:08:06.718Z,18.33
2017-12-16T17:10:35.554Z,17.63
2017-12-16T17:13:04.448Z,17.00
2017-12-16T17:15:33.324Z,17.40
2017-12-16T17:18:02.156Z,17.20
2017-12-16T17:20:30.990Z,16.60
2017-12-16T17:22:59.833Z,16.10
2017-12-16T17:25:28.671Z,16.20
2017-12-16T17:27:57.574Z,16.50
2017-12-16T17:30:26.421Z,17.97
2017-12-16T17:32:55.317Z,16.93
2017-12-16T17:35:24.145Z,16.63
2017-12-16T17:37:52.994Z,18.00
2017-12-16T17:40:21.828Z,16.00
2017-12-16T17:42:50.955Z,17.57
2017-12-16T17:45:19.799Z,16.90
2017-12-16T17:47:48.632Z,16.07
2017-12-16T17:50:17.583Z,15.73
2017-12-16T17:52:46.418Z,16.20
2017-12-16T17:55:15.249Z,16.90
2017-12-16T17:57:44.078Z,16.93
2017-12-16T18:00:12.930Z,18.60
2017-12-16T18:02:41.760Z,17.70
2017-12-16T18:05:10.760Z,17.77
2017-12-16T18:07:39.620Z,17.40
2017-12-16T18:10:09.300Z,16.50
2017-12-16T18:12:38.140Z,15.97
2017-12-16T18:15:06.993Z,16.70
2017-12-16T18:17:35.828Z,14.53
2017-12-16T18:20:04.667Z,17.73
2017-12-16T18:22:33.506Z,14.77
2017-12-16T18:25:02.327Z,14.63
2017-12-16T18:27:31.159Z,15.00
2017-12-16T18:30:00.026Z,17.20
2017-12-16T18:32:28.859Z,15.00
2017-12-16T18:34:57.690Z,14.30
2017-12-16T18:37:26.535Z,16.70
2017-12-16T18:39:55.367Z,15.97
2017-12-16T18:42:24.197Z,15.70
2017-12-16T18:44:53.079Z,16.63
2017-12-16T18:47:21.911Z,16.03
2017-12-16T18:49:50.943Z,15.77
2017-12-16T18:52:19.795Z,16.00
2017-12-16T18:54:48.626Z,16.53
2017-12-16T18:57:17.486Z,18.00
2017-12-16T18:59:46.331Z,17.50
2017-12-16T19:02:15.170Z,17.50
2017-12-16T19:04:44.002Z,16.80
2017-12-16T19:07:12.846Z,17.30
2017-12-16T19:09:41.674Z,18.90
2017-12-16T19:12:10.522Z,18.30
2017-12-16T19:14:39.395Z,18.10
2017-12-16T19:17:08.514Z,17.80
2017-12-16T19:19:37.346Z,18.27
2017-12-16T19:22:06.194Z,17.27
2017-12-16T19:24:35.022Z,16.30
2017-12-16T19:27:03.852Z,17.07
2017-12-16T19:29:32.738Z,18.50
2017-12-16T19:32:01.586Z,18.20
2017-12-16T19:34:30.430Z,17.40
2017-12-16T19:36:59.269Z,19.20
2017-12-16T19:39:28.469Z,17.40
2017-12-16T19:41:57.295Z,19.13
2017-12-16T19:44:26.148Z,19.10
2017-12-16T19:46:55.010Z,19.77
2017-12-16T19:49:23.847Z,17.50
2017-12-16T19:51:52.793Z,20.70
2017-12-16T19:54:21.635Z,20.80
2017-12-16T19:56:50.467Z,20.50
2017-12-16T19:59:19.315Z,20.57
2017-12-16T20:01:48.139Z,21.83
2017-12-16T20:04:16.970Z,20.57
2017-12-16T20:06:45.814Z,18.80
2017-12-16T20:09:14.658Z,21.10
2017-12-16T20:11:43.486Z,22.47
2017-12-16T20:14:12.327Z,22.00
2017-12-16T20:16:41.175Z,22.37
2017-12-16T20:19:10.007Z,20.20
2017-12-16T20:21:38.867Z,22.67
2017-12-16T20:24:07.705Z,22.20
2017-12-16T20:26:36.586Z,22.80
2017-12-16T20:29:05.434Z,21.10
2017-12-16T20:31:34.270Z,22.53
2017-12-16T20:39:48.765Z,21.40
2017-12-16T20:42:17.599Z,22.93
2017-12-16T20:44:46.489Z,24.13
2017-12-16T20:47:15.341Z,23.17
2017-12-16T20:49:44.179Z,23.53
2017-12-16T20:52:13.009Z,22.40
2017-12-16T20:54:41.909Z,23.90
2017-12-16T20:57:10.739Z,24.00
2017-12-16T20:59:39.574Z,24.23
2017-12-16T21:02:08.423Z,23.17
2017-12-16T21:04:37.255Z,24.70
2017-12-16T21:07:06.656Z,22.13
2017-12-16T21:09:35.506Z,23.57
2017-12-16T21:12:04.333Z,24.13
2017-12-16T21:14:33.198Z,25.47
2017-12-16T21:17:02.066Z,25.23
2017-12-16T21:19:30.894Z,24.60
2017-12-16T21:21:59.728Z,24.00
2017-12-16T21:24:28.636Z,25.27
2017-12-16T21:26:57.475Z,25.63
2017-12-16T21:29:26.307Z,23.93
2017-12-16T21:31:55.327Z,25.00
2017-12-16T21:34:24.153Z,24.70
2017-12-16T21:36:52.986Z,25.93
2017-12-16T21:39:21.839Z,25.00
2017-12-16T21:41:50.683Z,24.57
2017-12-16T21:44:19.524Z,22.60
2017-12-16T21:46:48.380Z,24.47
2017-12-16T21:49:17.231Z,24.00
2017-12-16T21:51:46.075Z,23.27
2017-12-16T21:54:14.924Z,25.60
2017-12-16T21:56:43.793Z,25.87
2017-12-16T21:59:12.631Z,29.70
2017-12-16T22:01:41.477Z,27.90
2017-12-16T22:04:10.310Z,25.37
2017-12-16T22:06:39.167Z,26.17
2017-12-16T22:09:08.082Z,23.50
2017-12-16T22:11:36.935Z,24.37
2017-12-16T22:14:05.758Z,26.50
2017-12-16T22:16:34.599Z,22.30
2017-12-16T22:19:03.434Z,22.60
2017-12-16T22:21:32.299Z,24.43
2017-12-16T22:24:01.142Z,23.97
2017-12-16T22:26:29.978Z,22.80
2017-12-16T22:28:58.806Z,21.63
2017-12-16T22:31:27.650Z,22.53
2017-12-16T22:33:57.494Z,24.47
2017-12-16T22:36:26.369Z,22.30
2017-12-16T22:38:55.220Z,25.00
2017-12-16T22:41:24.078Z,24.13
2017-12-16T22:43:52.939Z,23.00
2017-12-16T22:46:21.781Z,23.13
2017-12-16T22:48:50.617Z,23.10
2017-12-16T22:51:19.451Z,26.83
2017-12-16T22:53:48.299Z,21.77
2017-12-16T22:56:17.127Z,22.70
2017-12-16T22:58:46.019Z,23.93
2017-12-16T23:01:14.862Z,22.10
2017-12-16T23:03:43.726Z,22.33
2017-12-16T23:06:12.562Z,21.63
2017-12-16T23:08:41.409Z,21.37
2017-12-16T23:11:10.242Z,21.10
2017-12-16T23:13:39.060Z,21.67
2017-12-16T23:16:07.912Z,21.53
2017-12-16T23:18:36.746Z,21.00
2017-12-16T23:21:05.578Z,21.77
2017-12-16T23:23:34.438Z,19.47
2017-12-16T23:26:03.270Z,20.33
2017-12-16T23:28:32.115Z,21.67
2017-12-16T23:31:00.958Z,19.50
2017-12-16T23:33:29.791Z,20.10
2017-12-16T23:35:58.629Z,19.73
2017-12-16T23:38:27.474Z,19.50
2017-12-16T23:40:56.312Z,19.00
2017-12-16T23:43:25.163Z,20.10
2017-12-16T23:45:54.007Z,18.37
2017-12-16T23:48:22.849Z,18.10
2017-12-16T23:50:51.813Z,19.50
2017-12-16T23:53:20.659Z,20.20
2017-12-16T23:55:49.491Z,18.10
2017-12-16T23:58:19.063Z,18.07
